Time;durP1;ratioP1;P1;durP2;ratioP2;P2;SDS_P1;SDS_P2;PMS_P1;PMS_P2;Temp;Humidity;BMP_temperature;BMP_pressure;BME280_temperature;BME280_humidity;BME280_pressure;Samples;Min_cycle;Max_cycle;Signal;HPM_P1;HPM_P2
2024/01/13 00:01:19;;;;;;;31.58;10.75;;;2.40;99.90;;;;;;5056990;28;20024;-71
2024/01/13 00:03:45;;;;;;;35.97;11.25;;;2.40;99.90;;;;;;5057081;28;20032;-71
2024/01/13 00:06:10;;;;;;;39.05;12.38;;;2.30;99.90;;;;;;5056057;28;20018;-71
2024/01/13 00:08:36;;;;;;;35.47;11.18;;;2.10;99.90;;;;;;5055927;28;20103;-70
2024/01/13 00:11:01;;;;;;;31.50;10.65;;;2.10;99.90;;;;;;5056844;28;20067;-71
2024/01/13 00:13:27;;;;;;;31.27;11.52;;;2.10;99.90;;;;;;5055870;28;20060;-71
2024/01/13 00:15:53;;;;;;;34.55;12.15;;;2.00;99.90;;;;;;5055911;28;20020;-71
2024/01/13 00:18:19;;;;;;;40.40;11.73;;;2.00;99.90;;;;;;5056635;28;20120;-71
2024/01/13 00:20:45;;;;;;;33.67;12.57;;;2.00;99.90;;;;;;5056729;28;20021;-71
2024/01/13 00:23:10;;;;;;;38.08;12.13;;;1.90;99.90;;;;;;5056361;28;20119;-70
2024/01/13 00:25:36;;;;;;;35.35;12.25;;;1.90;99.90;;;;;;5055922;28;20021;-71
2024/01/13 00:28:01;;;;;;;35.85;12.52;;;1.90;99.90;;;;;;5055646;28;20025;-70
2024/01/13 00:30:27;;;;;;;35.47;11.85;;;2.00;99.90;;;;;;5056034;28;20047;-70
2024/01/13 00:32:52;;;;;;;29.42;11.50;;;1.90;99.90;;;;;;5055892;28;20025;-70
2024/01/13 00:35:18;;;;;;;35.28;12.88;;;2.00;99.90;;;;;;5056510;28;20143;-70
2024/01/13 00:37:44;;;;;;;37.03;11.95;;;2.00;99.90;;;;;;5056498;28;20052;-71
2024/01/13 00:40:12;;;;;;;35.90;11.65;;;2.10;99.90;;;;;;5055678;28;20024;-71
2024/01/13 00:42:38;;;;;;;32.17;11.43;;;2.10;99.90;;;;;;5056401;28;20056;-71
2024/01/13 00:45:04;;;;;;;34.28;12.13;;;2.10;99.90;;;;;;5056608;28;20017;-70
2024/01/13 00:47:29;;;;;;;31.48;12.45;;;2.10;99.90;;;;;;5056585;28;20025;-71
2024/01/13 00:49:55;;;;;;;30.83;11.02;;;2.20;99.90;;;;;;5056559;28;20029;-70
2024/01/13 00:52:20;;;;;;;32.00;11.32;;;2.20;99.90;;;;;;5056463;28;20025;-71
2024/01/13 00:54:46;;;;;;;36.58;12.38;;;2.30;99.90;;;;;;5056838;28;20096;-71
2024/01/13 00:57:11;;;;;;;33.47;13.07;;;2.20;99.90;;;;;;5055680;28;20039;-71
2024/01/13 00:59:37;;;;;;;32.03;10.55;;;2.30;99.90;;;;;;5056492;28;20065;-71
2024/01/13 01:02:02;;;;;;;35.83;12.88;;;2.40;99.90;;;;;;5057007;28;20108;-70
2024/01/13 01:04:28;;;;;;;27.20;11.38;;;2.40;99.90;;;;;;5059394;28;20025;-71
2024/01/13 01:06:53;;;;;;;31.23;10.10;;;2.50;99.90;;;;;;5060243;28;20036;-70
2024/01/13 01:09:19;;;;;;;35.03;11.77;;;2.50;99.90;;;;;;5060096;28;20032;-71
2024/01/13 01:11:45;;;;;;;33.67;12.23;;;2.50;99.90;;;;;;5059931;28;20017;-70
2024/01/13 01:14:10;;;;;;;40.67;11.48;;;2.40;99.90;;;;;;5060141;28;20074;-70
2024/01/13 01:16:36;;;;;;;34.25;11.23;;;2.40;99.90;;;;;;5059995;28;20037;-71
2024/01/13 01:19:01;;;;;;;33.70;11.52;;;2.40;99.90;;;;;;5058730;28;20017;-71
2024/01/13 01:21:27;;;;;;;35.22;11.70;;;2.50;99.90;;;;;;5059884;28;20147;-71
2024/01/13 01:23:52;;;;;;;36.97;11.73;;;2.40;99.90;;;;;;5058725;28;20071;-71
2024/01/13 01:26:18;;;;;;;28.70;11.35;;;2.40;99.90;;;;;;5059651;28;20033;-70
2024/01/13 01:28:43;;;;;;;33.60;11.27;;;2.30;99.90;;;;;;5059593;28;20024;-71
2024/01/13 01:31:09;;;;;;;35.90;11.60;;;2.50;99.90;;;;;;5059568;28;20025;-71
2024/01/13 01:33:35;;;;;;;35.28;12.43;;;2.50;99.90;;;;;;5059627;28;20021;-71
2024/01/13 01:36:00;;;;;;;37.20;11.18;;;2.50;99.90;;;;;;5058762;28;20017;-71
2024/01/13 01:38:26;;;;;;;41.58;12.68;;;2.60;99.90;;;;;;5058744;28;20037;-71
2024/01/13 01:40:56;;;;;;;29.88;10.27;;;2.60;99.90;;;;;;5058728;28;20028;-71
2024/01/13 01:43:22;;;;;;;36.53;11.70;;;2.60;99.90;;;;;;5058588;28;20121;-70
2024/01/13 01:45:54;;;;;;;30.30;11.25;;;2.60;99.90;;;;;;5059475;28;20061;-70
2024/01/13 01:48:29;;;;;;;38.08;11.77;;;2.60;99.90;;;;;;5059255;28;20098;-71
2024/01/13 01:50:54;;;;;;;33.60;11.88;;;2.60;99.90;;;;;;5059733;28;20032;-71
2024/01/13 01:53:20;;;;;;;33.85;11.93;;;2.50;99.90;;;;;;5058309;28;20025;-71
2024/01/13 01:55:46;;;;;;;36.13;12.82;;;2.40;99.90;;;;;;5058672;28;20123;-71
2024/01/13 01:58:12;;;;;;;36.20;11.70;;;2.40;99.90;;;;;;5058372;28;20029;-71
2024/01/13 02:00:38;;;;;;;41.60;13.48;;;2.40;99.90;;;;;;5081966;22;20056;-73
2024/01/13 02:03:05;;;;;;;30.90;12.25;;;2.40;99.90;;;;;;5059134;28;20086;-73
2024/01/13 02:05:31;;;;;;;35.55;12.30;;;2.60;99.90;;;;;;5058348;28;20017;-73
2024/01/13 02:07:57;;;;;;;34.75;12.75;;;2.50;99.90;;;;;;5058960;28;20025;-73
2024/01/13 02:10:23;;;;;;;39.10;12.80;;;2.50;99.90;;;;;;5058983;28;20108;-73
2024/01/13 02:12:48;;;;;;;28.85;11.63;;;2.60;99.90;;;;;;5058886;28;20063;-73
2024/01/13 02:15:14;;;;;;;37.00;12.80;;;2.50;99.90;;;;;;5057890;28;20052;-74
2024/01/13 02:17:40;;;;;;;33.38;12.98;;;2.40;99.90;;;;;;5057752;28;20064;-73
2024/01/13 02:20:07;;;;;;;35.88;12.45;;;2.50;99.90;;;;;;5058748;28;20028;-73
2024/01/13 02:22:33;;;;;;;29.95;10.45;;;2.30;99.90;;;;;;5059038;28;20018;-73
2024/01/13 02:25:03;;;;;;;37.00;12.30;;;2.30;99.90;;;;;;5058936;28;20032;-73
2024/01/13 02:27:29;;;;;;;40.47;12.48;;;2.40;99.90;;;;;;5058588;28;20032;-74
2024/01/13 02:29:55;;;;;;;31.80;11.68;;;2.40;99.90;;;;;;5057571;28;20025;-73
2024/01/13 02:32:21;;;;;;;32.40;11.88;;;2.40;99.90;;;;;;5058295;28;20047;-73
2024/01/13 02:34:46;;;;;;;35.08;11.73;;;2.40;99.90;;;;;;5057655;28;20027;-73
2024/01/13 02:37:12;;;;;;;33.25;12.18;;;2.40;99.90;;;;;;5057383;28;20158;-73
2024/01/13 02:39:37;;;;;;;34.40;12.30;;;2.40;99.90;;;;;;5058481;28;20071;-73
2024/01/13 02:42:03;;;;;;;42.38;13.70;;;2.30;99.90;;;;;;5058248;28;20095;-73
2024/01/13 02:44:29;;;;;;;32.80;12.13;;;2.30;99.90;;;;;;5058173;28;20029;-74
2024/01/13 02:46:55;;;;;;;35.97;12.38;;;2.40;99.90;;;;;;5058162;28;20029;-74
2024/01/13 02:49:20;;;;;;;30.63;12.35;;;2.50;99.90;;;;;;5058170;28;20024;-73
2024/01/13 02:51:46;;;;;;;32.60;11.85;;;2.70;99.90;;;;;;5057500;28;20025;-73
2024/01/13 02:54:12;;;;;;;45.42;12.00;;;2.50;99.90;;;;;;5058453;28;20029;-73
2024/01/13 02:56:37;;;;;;;36.28;12.30;;;2.50;99.90;;;;;;5057954;28;20032;-73
2024/01/13 02:59:03;;;;;;;34.50;12.00;;;2.50;99.90;;;;;;5057056;28;20021;-73
2024/01/13 03:01:31;;;;;;;33.05;12.10;;;2.60;99.90;;;;;;5056858;28;20029;-73
2024/01/13 03:03:57;;;;;;;35.58;11.30;;;2.70;99.90;;;;;;5057870;28;20081;-73
2024/01/13 03:06:24;;;;;;;29.98;11.10;;;2.70;99.90;;;;;;5057816;28;20109;-73
2024/01/13 03:08:49;;;;;;;31.00;10.80;;;2.90;99.90;;;;;;5058226;28;20021;-73
2024/01/13 03:11:15;;;;;;;32.70;12.43;;;2.90;99.90;;;;;;5057688;28;20028;-73
2024/01/13 03:13:40;;;;;;;31.02;11.75;;;3.00;99.90;;;;;;5058046;28;20108;-73
2024/01/13 03:16:06;;;;;;;27.90;11.15;;;3.00;99.90;;;;;;5056933;28;20028;-73
2024/01/13 03:18:32;;;;;;;33.08;12.15;;;3.00;99.90;;;;;;5057855;28;20040;-73
2024/01/13 03:20:57;;;;;;;33.75;12.02;;;3.00;99.90;;;;;;5056600;28;20078;-73
2024/01/13 03:23:23;;;;;;;32.45;11.27;;;2.90;99.90;;;;;;5056491;28;20025;-73
2024/01/13 03:25:48;;;;;;;29.90;11.73;;;3.00;99.90;;;;;;5057139;28;20052;-73
2024/01/13 03:28:14;;;;;;;35.17;12.07;;;2.90;99.90;;;;;;5056870;28;20051;-73
2024/01/13 03:30:39;;;;;;;34.30;11.73;;;2.80;99.90;;;;;;5056931;28;20084;-73
2024/01/13 03:33:05;;;;;;;37.03;12.70;;;2.80;99.90;;;;;;5056784;28;20025;-73
2024/01/13 03:35:31;;;;;;;40.75;13.32;;;2.70;99.90;;;;;;5056690;28;20029;-73
2024/01/13 03:37:57;;;;;;;35.08;12.57;;;2.70;99.90;;;;;;5056500;28;20128;-73
2024/01/13 03:40:22;;;;;;;41.70;12.18;;;2.70;99.90;;;;;;5057233;28;20053;-73
2024/01/13 03:42:48;;;;;;;41.92;13.75;;;2.60;99.90;;;;;;5056411;28;20024;-73
2024/01/13 03:45:13;;;;;;;40.22;12.50;;;2.60;99.90;;;;;;5057564;28;20033;-73
2024/01/13 03:47:40;;;;;;;39.50;13.43;;;2.60;99.90;;;;;;5057243;28;20024;-73
2024/01/13 03:50:07;;;;;;;34.85;12.82;;;2.60;99.90;;;;;;5057239;28;20032;-73
2024/01/13 03:52:32;;;;;;;31.23;12.18;;;2.80;99.90;;;;;;5056591;28;20052;-73
2024/01/13 03:54:58;;;;;;;36.33;13.38;;;2.80;99.90;;;;;;5056286;28;20067;-73
2024/01/13 03:57:24;;;;;;;38.20;12.50;;;2.80;99.90;;;;;;5056918;28;20025;-73
2024/01/13 03:59:50;;;;;;;34.35;12.80;;;2.70;99.90;;;;;;5056192;28;20023;-73
2024/01/13 04:02:15;;;;;;;38.53;13.10;;;2.70;99.90;;;;;;5057588;28;20030;-73
2024/01/13 04:04:41;;;;;;;32.17;11.77;;;2.60;99.90;;;;;;5056999;28;20021;-73
2024/01/13 04:07:07;;;;;;;32.42;12.77;;;2.50;99.90;;;;;;5056954;28;20078;-73
2024/01/13 04:09:33;;;;;;;38.22;12.35;;;2.70;99.90;;;;;;5056844;28;20029;-73
2024/01/13 04:11:59;;;;;;;33.35;11.50;;;2.70;99.90;;;;;;5057155;28;20031;-73
2024/01/13 04:14:24;;;;;;;30.65;12.05;;;2.80;99.90;;;;;;5056042;28;20032;-73
2024/01/13 04:16:50;;;;;;;36.25;11.25;;;2.90;99.90;;;;;;5056704;28;20028;-74
2024/01/13 04:19:15;;;;;;;32.08;12.88;;;2.90;99.90;;;;;;5055817;28;20047;-73
2024/01/13 04:21:42;;;;;;;36.67;12.88;;;2.90;99.90;;;;;;5055797;28;20108;-73
2024/01/13 04:24:08;;;;;;;33.50;13.20;;;2.90;99.90;;;;;;5055880;28;20032;-73
2024/01/13 04:26:35;;;;;;;34.65;12.95;;;3.00;99.90;;;;;;5056887;28;20025;-73
2024/01/13 04:29:00;;;;;;;37.47;11.60;;;2.90;99.90;;;;;;5056708;28;20036;-73
2024/01/13 04:31:26;;;;;;;38.60;12.75;;;3.00;99.90;;;;;;5055683;28;20029;-73
2024/01/13 04:33:52;;;;;;;36.00;12.35;;;2.80;99.90;;;;;;5057019;28;20029;-73
2024/01/13 04:36:18;;;;;;;36.28;12.88;;;2.80;99.90;;;;;;5055917;28;20025;-73
2024/01/13 04:38:45;;;;;;;33.88;12.15;;;2.80;99.90;;;;;;5060282;28;20045;-73
2024/01/13 04:41:11;;;;;;;30.75;11.82;;;2.80;99.90;;;;;;5060570;28;20017;-73
2024/01/13 04:43:40;;;;;;;33.78;12.98;;;2.80;99.90;;;;;;5059882;28;20021;-73
2024/01/13 04:46:06;;;;;;;36.90;11.80;;;2.80;99.90;;;;;;5059620;28;20048;-73
2024/01/13 04:48:32;;;;;;;30.30;11.07;;;2.80;99.90;;;;;;5059660;28;20047;-73
2024/01/13 04:50:57;;;;;;;38.70;13.32;;;2.70;99.90;;;;;;5059414;28;20116;-74
2024/01/13 04:53:23;;;;;;;33.90;12.38;;;2.80;99.90;;;;;;5060465;28;20033;-73
2024/01/13 04:55:49;;;;;;;32.97;11.48;;;2.80;99.90;;;;;;5060418;28;20096;-73
2024/01/13 04:58:14;;;;;;;37.38;12.27;;;2.80;99.90;;;;;;5060167;28;20025;-73
2024/01/13 05:00:40;;;;;;;39.10;13.10;;;2.80;99.90;;;;;;5060093;28;20039;-73
2024/01/13 05:03:05;;;;;;;31.60;10.90;;;2.70;99.90;;;;;;5060351;28;20029;-73
2024/01/13 05:05:31;;;;;;;35.72;13.07;;;2.60;99.90;;;;;;5060715;28;20021;-73
2024/01/13 05:07:57;;;;;;;37.50;11.98;;;2.60;99.90;;;;;;5060090;28;20037;-76
2024/01/13 05:10:23;;;;;;;36.33;13.02;;;2.60;99.90;;;;;;5059078;28;20021;-73
2024/01/13 05:12:48;;;;;;;31.27;11.65;;;2.80;99.90;;;;;;5059178;28;20025;-73
2024/01/13 05:15:14;;;;;;;29.40;10.35;;;3.00;99.90;;;;;;5059198;28;20028;-73
2024/01/13 05:17:40;;;;;;;31.10;10.95;;;3.10;99.90;;;;;;5058862;28;20025;-73
2024/01/13 05:20:06;;;;;;;35.20;11.77;;;3.00;99.90;;;;;;5058943;28;20113;-73
2024/01/13 05:22:33;;;;;;;33.42;11.80;;;3.10;99.90;;;;;;5060004;28;20023;-73
2024/01/13 05:24:58;;;;;;;36.22;12.90;;;3.10;99.90;;;;;;5059138;28;20021;-73
2024/01/13 05:27:24;;;;;;;29.27;11.57;;;3.10;99.90;;;;;;5059087;28;20116;-73
2024/01/13 05:29:49;;;;;;;37.25;12.48;;;3.10;99.90;;;;;;5060413;28;20029;-73
2024/01/13 05:32:15;;;;;;;38.25;12.95;;;3.00;99.90;;;;;;5059732;28;20025;-73
2024/01/13 05:34:41;;;;;;;34.42;11.40;;;3.00;99.90;;;;;;5059568;28;20028;-73
2024/01/13 05:37:07;;;;;;;33.30;11.23;;;3.00;99.90;;;;;;5059602;28;20033;-73
2024/01/13 05:39:32;;;;;;;31.75;11.63;;;2.90;99.90;;;;;;5059031;28;20078;-73
2024/01/13 05:41:58;;;;;;;30.02;11.23;;;2.90;99.90;;;;;;5058462;28;20048;-73
2024/01/13 05:44:24;;;;;;;36.63;12.48;;;2.80;99.90;;;;;;5058847;28;20052;-73
2024/01/13 05:46:51;;;;;;;32.97;12.23;;;2.80;99.90;;;;;;5058911;28;20029;-73
2024/01/13 05:49:17;;;;;;;33.53;12.75;;;2.80;99.90;;;;;;5057210;28;20032;-73
2024/01/13 05:51:42;;;;;;;30.63;11.95;;;2.70;99.90;;;;;;5059442;28;20025;-73
2024/01/13 05:54:08;;;;;;;35.50;11.25;;;2.80;99.90;;;;;;5058709;28;20029;-73
2024/01/13 05:56:33;;;;;;;36.42;13.18;;;2.80;99.90;;;;;;5058196;28;20032;-73
2024/01/13 05:58:59;;;;;;;36.55;11.27;;;2.80;99.90;;;;;;5059141;28;20021;-73
2024/01/13 06:01:24;;;;;;;31.35;11.48;;;2.90;99.90;;;;;;5058897;28;20055;-73
2024/01/13 06:03:51;;;;;;;31.85;12.60;;;2.90;99.90;;;;;;5058872;28;20053;-73
2024/01/13 06:06:17;;;;;;;37.10;11.40;;;2.90;99.90;;;;;;5059347;28;20025;-73
2024/01/13 06:08:43;;;;;;;34.83;11.95;;;2.90;99.90;;;;;;5059027;28;20086;-73
2024/01/13 06:11:09;;;;;;;38.30;12.35;;;2.90;99.90;;;;;;5059085;28;20021;-73
2024/01/13 06:13:34;;;;;;;28.20;10.75;;;2.90;99.90;;;;;;5058947;28;20025;-73
2024/01/13 06:16:00;;;;;;;33.80;12.30;;;2.90;99.90;;;;;;5058022;28;20025;-73
2024/01/13 06:18:25;;;;;;;32.55;11.70;;;2.90;99.90;;;;;;5057883;28;20028;-73
2024/01/13 06:20:51;;;;;;;32.00;11.68;;;3.00;99.90;;;;;;5057715;28;20077;-74
2024/01/13 06:23:16;;;;;;;38.20;13.20;;;3.00;99.90;;;;;;5058735;28;20079;-73
2024/01/13 06:25:42;;;;;;;30.02;11.27;;;3.00;99.90;;;;;;5058861;28;20080;-73
2024/01/13 06:28:07;;;;;;;28.90;11.20;;;3.10;99.90;;;;;;5057819;28;20017;-73
2024/01/13 06:30:33;;;;;;;35.42;11.20;;;3.10;99.90;;;;;;5057570;28;20029;-73
2024/01/13 06:32:59;;;;;;;35.53;12.93;;;3.10;99.90;;;;;;5057700;28;20017;-73
2024/01/13 06:35:24;;;;;;;31.13;12.05;;;3.00;99.90;;;;;;5058074;28;20021;-73
2024/01/13 06:37:50;;;;;;;35.28;11.70;;;2.90;99.90;;;;;;5058442;28;20032;-73
2024/01/13 06:40:16;;;;;;;34.28;11.90;;;3.00;99.90;;;;;;5058252;28;20025;-73
2024/01/13 06:42:41;;;;;;;32.33;11.73;;;2.90;99.90;;;;;;5058434;28;20032;-73
2024/01/13 06:45:07;;;;;;;27.73;10.65;;;3.00;99.90;;;;;;5058630;28;20025;-74
2024/01/13 06:47:33;;;;;;;33.17;11.13;;;3.10;99.90;;;;;;5058258;28;20032;-73
2024/01/13 06:49:59;;;;;;;33.95;11.40;;;3.10;99.90;;;;;;5058288;28;20147;-73
2024/01/13 06:52:24;;;;;;;32.80;10.38;;;3.20;99.90;;;;;;5058202;28;20025;-73
2024/01/13 06:54:50;;;;;;;33.05;10.98;;;3.20;99.90;;;;;;5058281;28;20031;-73
2024/01/13 06:57:16;;;;;;;31.10;10.85;;;3.20;99.90;;;;;;5057162;28;20048;-73
2024/01/13 06:59:45;;;;;;;29.88;10.68;;;3.10;99.90;;;;;;5056883;28;20071;-73
2024/01/13 07:02:10;;;;;;;29.67;10.75;;;3.10;99.90;;;;;;5058576;28;20123;-73
2024/01/13 07:04:38;;;;;;;35.22;11.48;;;3.10;99.90;;;;;;5058206;28;20048;-73
2024/01/13 07:07:05;;;;;;;29.70;11.38;;;3.10;99.90;;;;;;5057911;28;20025;-73
2024/01/13 07:09:30;;;;;;;29.05;10.25;;;3.10;99.90;;;;;;5058070;28;20036;-73
2024/01/13 07:11:56;;;;;;;27.85;11.68;;;3.10;99.90;;;;;;5057629;28;20157;-73
2024/01/13 07:14:22;;;;;;;25.52;9.98;;;3.10;99.90;;;;;;5056820;28;20025;-73
2024/01/13 07:16:47;;;;;;;35.05;11.82;;;3.20;99.90;;;;;;5056691;28;20029;-73
2024/01/13 07:19:13;;;;;;;31.90;10.50;;;3.20;99.90;;;;;;5056798;28;20021;-73
2024/01/13 07:21:38;;;;;;;34.85;11.82;;;3.20;99.90;;;;;;5058051;28;20029;-73
2024/01/13 07:24:06;;;;;;;32.72;11.43;;;3.10;99.90;;;;;;5057770;28;20070;-73
2024/01/13 07:26:31;;;;;;;39.67;13.35;;;3.10;99.90;;;;;;5057599;28;20017;-73
2024/01/13 07:28:57;;;;;;;37.28;12.75;;;3.10;99.90;;;;;;5056585;28;20020;-73
2024/01/13 07:31:22;;;;;;;28.80;11.02;;;3.20;99.90;;;;;;5056465;28;20020;-73
2024/01/13 07:33:48;;;;;;;31.30;11.13;;;3.20;99.90;;;;;;5056914;28;20021;-73
2024/01/13 07:36:13;;;;;;;31.00;10.68;;;3.20;99.90;;;;;;5056472;28;20044;-73
2024/01/13 07:38:40;;;;;;;26.02;10.27;;;3.20;99.90;;;;;;5056801;28;20041;-73
2024/01/13 07:41:07;;;;;;;32.63;12.20;;;3.20;99.90;;;;;;5057234;28;20093;-73
2024/01/13 07:43:32;;;;;;;29.40;11.45;;;3.20;99.90;;;;;;5056292;28;20049;-73
2024/01/13 07:45:58;;;;;;;40.03;11.80;;;3.20;99.90;;;;;;5056896;28;20032;-74
2024/01/13 07:48:24;;;;;;;29.65;11.68;;;3.10;99.90;;;;;;5056870;28;20025;-73
2024/01/13 07:50:50;;;;;;;25.38;10.48;;;3.20;99.90;;;;;;5057770;28;20036;-73
2024/01/13 07:53:15;;;;;;;29.02;10.98;;;3.20;99.90;;;;;;5057479;28;20108;-73
2024/01/13 07:55:41;;;;;;;23.60;10.55;;;3.20;99.90;;;;;;5057435;28;20052;-73
2024/01/13 07:58:06;;;;;;;30.92;11.55;;;3.20;99.90;;;;;;5056989;28;20033;-73
2024/01/13 08:00:32;;;;;;;36.03;12.75;;;3.20;99.90;;;;;;5056421;28;20025;-73
2024/01/13 08:02:57;;;;;;;34.13;12.48;;;3.10;99.90;;;;;;5057187;28;20033;-73
2024/01/13 08:05:23;;;;;;;32.05;11.95;;;3.20;99.90;;;;;;5056123;28;20028;-73
2024/01/13 08:07:48;;;;;;;31.90;12.25;;;3.20;99.90;;;;;;5056898;28;20055;-73
2024/01/13 08:10:14;;;;;;;35.88;12.38;;;3.10;99.90;;;;;;5056828;28;20029;-73
2024/01/13 08:12:39;;;;;;;35.25;12.27;;;3.10;99.90;;;;;;5055210;28;20032;-73
2024/01/13 08:15:05;;;;;;;29.77;9.98;;;3.30;99.90;;;;;;5057055;28;20037;-73
2024/01/13 08:17:31;;;;;;;31.88;11.70;;;3.30;99.90;;;;;;5056748;28;20036;-72
2024/01/13 08:19:57;;;;;;;28.40;10.55;;;3.40;99.90;;;;;;5056248;28;20048;-74
2024/01/13 08:22:23;;;;;;;31.05;12.45;;;3.40;99.90;;;;;;5056921;28;20024;-73
2024/01/13 08:24:48;;;;;;;26.83;10.38;;;3.40;99.90;;;;;;5055904;28;20063;-74
2024/01/13 08:27:14;;;;;;;26.48;11.73;;;3.30;99.90;;;;;;5057028;28;20075;-73
2024/01/13 08:29:39;;;;;;;35.55;13.52;;;3.40;99.90;;;;;;5057096;28;20071;-72
2024/01/13 08:32:05;;;;;;;30.00;11.13;;;3.30;99.90;;;;;;5055790;28;20017;-72
2024/01/13 08:34:31;;;;;;;31.10;11.25;;;3.30;99.90;;;;;;5056852;28;20052;-72
2024/01/13 08:36:56;;;;;;;31.77;11.25;;;3.30;99.90;;;;;;5056676;28;20056;-74
2024/01/13 08:39:22;;;;;;;31.30;11.82;;;3.40;99.90;;;;;;5056808;28;20028;-73
2024/01/13 08:41:47;;;;;;;26.52;11.52;;;3.50;99.90;;;;;;5055996;28;20021;-73
2024/01/13 08:44:15;;;;;;;27.85;11.27;;;3.40;99.90;;;;;;5055740;28;20104;-73
2024/01/13 08:46:41;;;;;;;30.75;11.82;;;3.30;99.90;;;;;;5055643;28;20021;-73
2024/01/13 08:49:07;;;;;;;30.70;11.77;;;3.40;99.90;;;;;;5055903;28;20021;-73
2024/01/13 08:51:32;;;;;;;31.48;11.77;;;3.50;99.90;;;;;;5055596;28;20021;-74
2024/01/13 08:53:58;;;;;;;28.65;11.80;;;3.50;99.90;;;;;;5056571;28;20060;-73
2024/01/13 08:56:23;;;;;;;27.10;10.75;;;3.50;99.90;;;;;;5056468;28;20025;-73
2024/01/13 08:58:49;;;;;;;23.98;9.00;;;3.50;99.90;;;;;;5055447;28;20099;-73
2024/01/13 09:01:15;;;;;;;22.58;8.63;;;3.60;99.90;;;;;;5055546;28;20029;-73
2024/01/13 09:03:41;;;;;;;15.88;8.00;;;3.60;99.90;;;;;;5056582;28;20048;-73
2024/01/13 09:06:07;;;;;;;16.20;7.05;;;3.60;99.90;;;;;;5056553;28;20032;-74
2024/01/13 09:08:32;;;;;;;20.90;8.50;;;3.60;99.90;;;;;;5056695;28;20025;-73
2024/01/13 09:10:58;;;;;;;16.15;7.40;;;3.60;99.90;;;;;;5055319;28;20025;-73
2024/01/13 09:13:24;;;;;;;25.08;10.30;;;3.60;99.90;;;;;;5056597;28;20033;-73
2024/01/13 09:15:49;;;;;;;21.98;9.80;;;3.60;99.90;;;;;;5056129;28;20025;-72
2024/01/13 09:18:15;;;;;;;26.02;9.55;;;3.70;99.90;;;;;;5055188;28;20032;-73
2024/01/13 09:20:40;;;;;;;24.83;10.70;;;3.80;99.90;;;;;;5056188;28;20079;-73
2024/01/13 09:23:06;;;;;;;23.38;9.38;;;3.80;99.90;;;;;;5056954;28;20032;-73
2024/01/13 09:25:31;;;;;;;24.35;9.93;;;3.70;99.90;;;;;;5058874;28;20029;-73
2024/01/13 09:27:57;;;;;;;27.52;10.93;;;3.50;99.90;;;;;;5059998;28;20061;-73
2024/01/13 09:30:23;;;;;;;23.55;9.75;;;3.40;99.90;;;;;;5059148;28;20025;-73
2024/01/13 09:32:49;;;;;;;22.48;10.38;;;3.60;99.90;;;;;;5059498;28;20049;-73
2024/01/13 09:35:14;;;;;;;24.98;10.18;;;3.70;99.90;;;;;;5059696;28;20033;-73
2024/01/13 09:37:40;;;;;;;20.20;9.60;;;3.80;99.90;;;;;;5058540;28;20052;-74
2024/01/13 09:40:07;;;;;;;22.25;9.15;;;3.80;99.90;;;;;;5059069;28;20025;-73
2024/01/13 09:42:52;;;;;;;16.55;8.48;;;3.80;99.90;;;;;;5059529;28;20021;-73
2024/01/13 09:45:20;;;;;;;23.95;10.50;;;3.90;99.90;;;;;;5058761;28;20024;-74
2024/01/13 09:47:46;;;;;;;26.08;10.95;;;3.80;99.90;;;;;;5060485;28;20040;-73
2024/01/13 09:50:12;;;;;;;24.33;9.27;;;3.70;99.90;;;;;;5063555;28;20032;-73
2024/01/13 09:52:39;;;;;;;22.27;9.48;;;3.70;99.90;;;;;;5069193;28;20071;-73
2024/01/13 09:55:07;;;;;;;21.10;9.60;;;3.70;99.90;;;;;;5061688;28;20048;-73
2024/01/13 09:57:33;;;;;;;23.13;9.93;;;3.70;99.90;;;;;;5059658;28;20078;-73
2024/01/13 09:59:59;;;;;;;22.55;8.95;;;3.70;99.90;;;;;;5059016;28;20043;-73
2024/01/13 10:02:25;;;;;;;21.88;9.15;;;3.70;99.90;;;;;;5058237;28;20028;-73
2024/01/13 10:04:50;;;;;;;19.92;8.55;;;3.70;99.90;;;;;;5059506;28;20017;-72
2024/01/13 10:07:16;;;;;;;12.20;7.85;;;3.50;99.90;;;;;;5059172;28;20029;-73
2024/01/13 10:09:43;;;;;;;20.58;8.20;;;3.40;99.90;;;;;;5058093;28;20044;-73
2024/01/13 10:12:09;;;;;;;18.92;8.57;;;3.40;99.90;;;;;;5058083;28;20021;-72
2024/01/13 10:14:38;;;;;;;16.58;7.13;;;3.40;99.90;;;;;;5058067;28;20033;-73
2024/01/13 10:17:05;;;;;;;14.85;7.53;;;3.50;99.90;;;;;;5058538;28;20111;-73
2024/01/13 10:19:41;;;;;;;16.27;8.35;;;3.50;99.90;;;;;;5058754;28;20028;-73
2024/01/13 10:22:07;;;;;;;14.57;7.43;;;3.60;99.90;;;;;;5058273;28;20017;-73
2024/01/13 10:24:34;;;;;;;16.38;7.43;;;3.60;99.90;;;;;;5058280;28;20029;-74
2024/01/13 10:27:00;;;;;;;17.67;7.53;;;3.50;99.90;;;;;;5057714;28;20025;-73
2024/01/13 10:29:26;;;;;;;18.85;10.05;;;3.60;99.90;;;;;;5058068;28;20036;-73
2024/01/13 10:31:52;;;;;;;20.50;9.23;;;3.70;99.90;;;;;;5059170;28;20021;-73
2024/01/13 10:34:21;;;;;;;19.40;7.93;;;3.70;99.90;;;;;;5058207;28;20025;-73
2024/01/13 10:36:46;;;;;;;16.60;7.85;;;3.70;99.90;;;;;;5057459;28;20036;-73
2024/01/13 10:39:12;;;;;;;15.88;6.90;;;3.60;99.90;;;;;;5057751;28;20021;-73
2024/01/13 10:41:42;;;;;;;15.10;7.60;;;3.70;99.90;;;;;;5058606;28;20029;-73
2024/01/13 10:44:09;;;;;;;17.00;7.70;;;3.70;99.90;;;;;;5058042;28;20020;-73
2024/01/13 10:46:41;;;;;;;16.35;7.72;;;3.70;99.90;;;;;;5057607;28;20025;-74
2024/01/13 10:49:15;;;;;;;15.10;7.78;;;3.70;99.90;;;;;;5058091;28;20020;-74
2024/01/13 10:51:52;;;;;;;16.42;7.53;;;3.70;99.90;;;;;;5058143;28;20028;-74
2024/01/13 10:54:20;;;;;;;13.05;6.75;;;3.80;99.90;;;;;;5058235;28;20028;-74
2024/01/13 10:56:45;;;;;;;21.67;7.97;;;3.90;99.90;;;;;;5057043;28;20123;-75
2024/01/13 10:59:12;;;;;;;16.83;7.38;;;3.90;99.90;;;;;;5057996;28;20106;-74
2024/01/13 11:01:39;;;;;;;15.80;7.50;;;3.90;99.90;;;;;;5057030;28;20032;-74
2024/01/13 11:04:06;;;;;;;18.42;7.28;;;3.80;99.90;;;;;;5058272;28;20021;-73
2024/01/13 11:06:32;;;;;;;17.67;7.85;;;3.70;99.90;;;;;;5057996;28;20043;-74
2024/01/13 11:08:58;;;;;;;20.63;7.18;;;3.60;99.90;;;;;;5057284;28;20084;-74
2024/01/13 11:11:29;;;;;;;18.33;7.80;;;3.60;99.90;;;;;;5057841;28;20025;-73
2024/01/13 11:14:02;;;;;;;15.25;8.32;;;3.50;99.90;;;;;;5058063;28;20013;-74
2024/01/13 11:16:30;;;;;;;15.40;8.43;;;3.40;99.90;;;;;;5056894;28;20044;-74
2024/01/13 11:18:58;;;;;;;17.80;8.30;;;3.40;99.90;;;;;;5057144;28;20029;-74
2024/01/13 11:21:32;;;;;;;14.85;6.97;;;3.50;99.90;;;;;;5057799;28;20017;-74
2024/01/13 11:24:07;;;;;;;25.15;10.43;;;3.60;99.90;;;;;;5057122;28;20021;-74
2024/01/13 11:26:49;;;;;;;19.27;10.15;;;3.60;99.90;;;;;;5056737;28;20044;-74
2024/01/13 11:29:24;;;;;;;18.50;8.63;;;3.60;99.90;;;;;;5056817;28;20032;-74
2024/01/13 11:31:58;;;;;;;18.45;8.48;;;3.60;99.90;;;;;;5057197;28;20116;-74
2024/01/13 11:34:24;;;;;;;22.23;9.43;;;3.70;99.90;;;;;;5057502;28;20021;-74
2024/01/13 11:36:51;;;;;;;21.35;9.10;;;3.70;99.90;;;;;;5057246;28;20033;-74
2024/01/13 11:39:18;;;;;;;12.10;6.80;;;3.80;99.90;;;;;;5057664;28;20048;-74
2024/01/13 11:41:48;;;;;;;15.77;7.45;;;3.80;99.90;;;;;;5057314;28;20021;-73
2024/01/13 11:44:25;;;;;;;20.98;8.27;;;3.80;99.90;;;;;;5056344;28;20051;-74
2024/01/13 11:47:10;;;;;;;25.90;9.82;;;3.80;99.90;;;;;;5057211;28;20025;-74
2024/01/13 11:49:43;;;;;;;26.30;9.80;;;3.80;99.90;;;;;;5056329;28;20024;-74
2024/01/13 11:52:25;;;;;;;23.30;9.32;;;3.90;99.90;;;;;;5057235;28;20032;-73
2024/01/13 11:54:51;;;;;;;19.58;8.27;;;3.80;99.90;;;;;;5056231;28;20029;-74
2024/01/13 11:57:17;;;;;;;15.50;7.45;;;3.80;99.90;;;;;;5056993;28;20025;-74
2024/01/13 11:59:43;;;;;;;16.65;7.40;;;3.70;99.90;;;;;;5056312;28;20021;-73
2024/01/13 12:02:09;;;;;;;17.50;8.10;;;3.50;99.90;;;;;;5055853;28;20120;-73
2024/01/13 12:04:36;;;;;;;19.48;9.07;;;3.40;99.90;;;;;;5056980;28;20017;-74
2024/01/13 12:07:05;;;;;;;18.88;8.07;;;3.30;99.90;;;;;;5057137;28;20025;-73
2024/01/13 12:09:31;;;;;;;17.75;8.25;;;3.30;99.90;;;;;;5056939;28;20025;-73
2024/01/13 12:11:58;;;;;;;13.40;6.60;;;3.30;99.90;;;;;;5057247;28;20032;-73
2024/01/13 12:14:28;;;;;;;14.35;7.57;;;3.40;99.90;;;;;;5056517;28;20021;-74
2024/01/13 12:16:59;;;;;;;19.63;6.95;;;3.40;99.90;;;;;;5056705;28;20032;-73
2024/01/13 12:19:39;;;;;;;23.70;9.43;;;3.40;99.90;;;;;;5056786;28;20028;-73
2024/01/13 12:22:06;;;;;;;17.17;7.13;;;3.50;99.90;;;;;;5056878;28;20021;-73
2024/01/13 12:24:32;;;;;;;17.38;8.23;;;3.40;99.90;;;;;;5056881;28;20040;-73
2024/01/13 12:26:58;;;;;;;12.85;7.22;;;3.40;99.90;;;;;;5056399;28;20067;-74
2024/01/13 12:29:29;;;;;;;16.77;8.30;;;3.30;99.90;;;;;;5057047;28;20021;-74
2024/01/13 12:31:59;;;;;;;22.03;9.43;;;3.30;99.90;;;;;;5055893;28;20025;-73
2024/01/13 12:34:25;;;;;;;19.10;8.77;;;3.30;99.90;;;;;;5056803;28;20036;-74
2024/01/13 12:36:52;;;;;;;20.73;9.25;;;3.30;99.90;;;;;;5056762;28;20064;-74